Time;durP1;ratioP1;P1;durP2;ratioP2;P2;SDS_P1;SDS_P2;PMS_P1;PMS_P2;Temp;Humidity;BMP_temperature;BMP_pressure;BME280_temperature;BME280_humidity;BME280_pressure;Samples;Min_cycle;Max_cycle;Signal;HPM_P1;HPM_P2
2022/10/10 00:01:52;;;;;;;;;;;;;;;9.74;78.33;101409.31;5019788;28;20388;-39
2022/10/10 00:04:18;;;;;;;;;;;;;;;9.73;83.52;101412.97;5019105;28;19925;-40
2022/10/10 00:06:43;;;;;;;;;;;;;;;9.69;83.82;101405.25;5018462;28;19932;-39
2022/10/10 00:09:08;;;;;;;;;;;;;;;9.67;84.85;101407.22;5019271;28;20921;-40
2022/10/10 00:11:33;;;;;;;;;;;;;;;9.67;83.19;101401.88;5019926;28;20012;-39
2022/10/10 00:13:59;;;;;;;;;;;;;;;9.66;84.60;101399.34;5018623;28;20365;-40
2022/10/10 00:16:24;;;;;;;;;;;;;;;9.64;87.01;101401.31;5019194;28;19916;-39
2022/10/10 00:18:50;;;;;;;;;;;;;;;9.60;87.25;101405.25;5019301;28;19913;-39
2022/10/10 00:21:16;;;;;;;;;;;;;;;9.57;84.09;101405.53;5019532;28;20008;-39
2022/10/10 00:23:41;;;;;;;;;;;;;;;9.55;87.87;101392.31;5018927;28;20003;-39
2022/10/10 00:26:06;;;;;;;;;;;;;;;9.54;88.33;101396.00;5019092;28;19983;-40
2022/10/10 00:28:32;;;;;;;;;;;;;;;9.52;87.11;101393.47;5017312;28;19971;-39
2022/10/10 00:30:57;;;;;;;;;;;;;;;9.49;87.18;101390.25;5018265;28;19917;-40
2022/10/10 00:33:22;;;;;;;;;;;;;;;9.49;87.95;101393.75;5019200;28;20164;-39
2022/10/10 00:35:48;;;;;;;;;;;;;;;9.48;88.76;101393.88;5019179;28;19925;-41
2022/10/10 00:38:13;;;;;;;;;;;;;;;9.46;87.75;101391.34;5013906;28;19933;-39
2022/10/10 00:40:49;;;;;;;;;;;;;;;9.46;89.24;101388.69;5019177;28;20212;-39
2022/10/10 00:43:15;;;;;;;;;;;;;;;9.44;88.97;101395.16;5018222;28;19913;-39
2022/10/10 00:45:41;;;;;;;;;;;;;;;9.39;91.55;101387.56;5018339;28;20276;-39
2022/10/10 00:48:10;;;;;;;;;;;;;;;9.34;91.94;101384.47;5018818;28;19920;-39
2022/10/10 00:50:41;;;;;;;;;;;;;;;9.28;93.35;101380.56;5017364;28;19993;-39
2022/10/10 00:53:09;;;;;;;;;;;;;;;9.25;92.21;101380.84;5018352;28;19987;-40
2022/10/10 00:55:34;;;;;;;;;;;;;;;9.25;90.46;101375.50;5018654;28;20247;-39
2022/10/10 00:58:00;;;;;;;;;;;;;;;9.26;87.15;101371.84;5018555;28;19925;-39
2022/10/10 01:00:25;;;;;;;;;;;;;;;9.24;88.69;101365.81;5014433;28;19980;-39
2022/10/10 01:02:50;;;;;;;;;;;;;;;9.24;90.81;101370.31;5016341;28;19979;-38
2022/10/10 01:05:15;;;;;;;;;;;;;;;9.20;91.62;101372.41;5018410;28;20368;-40
2022/10/10 01:07:41;;;;;;;;;;;;;;;9.19;89.91;101368.06;5017030;28;20020;-38
2022/10/10 01:10:15;;;;;;;;;;;;;;;9.19;nan;101370.72;5018425;28;19953;-39
2022/10/10 01:12:46;;;;;;;;;;;;;;;9.13;88.55;101361.47;5017134;28;20414;-39
2022/10/10 01:15:18;;;;;;;;;;;;;;;9.12;90.51;101359.78;5018231;28;19971;-39
2022/10/10 01:17:47;;;;;;;;;;;;;;;9.11;94.08;101359.91;5017637;28;20076;-39
2022/10/10 01:20:15;;;;;;;;;;;;;;;9.07;92.49;101353.19;5018505;28;20335;-40
2022/10/10 01:23:00;;;;;;;;;;;;;;;9.06;93.15;101351.50;5017395;28;20014;-39
2022/10/10 01:25:47;;;;;;;;;;;;;;;9.04;89.87;101359.63;5018912;28;20580;-39
2022/10/10 01:28:23;;;;;;;;;;;;;;;9.03;92.62;101355.28;5015007;28;19917;-38
2022/10/10 01:30:48;;;;;;;;;;;;;;;9.01;94.45;101357.22;5007500;28;19925;-39
2022/10/10 01:33:15;;;;;;;;;;;;;;;8.98;93.87;101359.31;5017955;28;19975;-38
2022/10/10 01:35:54;;;;;;;;;;;;;;;8.98;95.64;101356.66;5017520;28;19913;-39
2022/10/10 01:38:25;;;;;;;;;;;;;;;8.94;96.63;101356.09;5016712;28;19967;-39
2022/10/10 01:41:09;;;;;;;;;;;;;;;8.91;97.39;101354.56;5017135;28;19920;-40
2022/10/10 01:43:35;;;;;;;;;;;;;;;8.90;97.61;101344.03;5015851;28;20031;-39
2022/10/10 01:46:11;;;;;;;;;;;;;;;8.88;97.88;101346.84;5018124;28;20604;-39
2022/10/10 01:48:37;;;;;;;;;;;;;;;8.88;98.62;101348.69;5017020;28;19923;-39
2022/10/10 01:51:14;;;;;;;;;;;;;;;8.86;98.39;101345.28;5017822;28;20004;-40
2022/10/10 01:53:58;;;;;;;;;;;;;;;8.83;100.00;101342.91;5016959;28;20286;-39
2022/10/10 01:56:29;;;;;;;;;;;;;;;8.80;100.00;101333.38;5017773;28;20356;-40
2022/10/10 01:59:08;;;;;;;;;;;;;;;8.80;100.00;101329.88;5015617;28;20296;-39
2022/10/10 02:01:45;;;;;;;;;;;;;;;8.78;99.29;101335.34;5017542;28;20419;-38
2022/10/10 02:04:29;;;;;;;;;;;;;;;8.77;98.34;101330.97;5017227;28;19921;-39
2022/10/10 02:06:58;;;;;;;;;;;;;;;8.77;97.61;101330.97;5015290;28;20368;-40
2022/10/10 02:09:26;;;;;;;;;;;;;;;8.78;97.71;101324.69;5017686;28;19928;-40
2022/10/10 02:11:52;;;;;;;;;;;;;;;8.75;100.00;101317.78;5016756;28;20015;-39
2022/10/10 02:14:20;;;;;;;;;;;;;;;8.71;100.00;101318.22;5013463;28;20032;-40
2022/10/10 02:16:47;;;;;;;;;;;;;;;8.67;100.00;101316.81;5017436;28;19923;-41
2022/10/10 02:19:16;;;;;;;;;;;;;;;8.65;98.73;101316.94;5017029;28;20360;-40
2022/10/10 02:21:41;;;;;;;;;;;;;;;8.66;95.94;101325.78;5016454;28;20148;-39
2022/10/10 02:24:07;;;;;;;;;;;;;;;8.67;100.00;101314.13;5016913;28;20028;-39
2022/10/10 02:26:35;;;;;;;;;;;;;;;8.67;98.30;101312.34;5015818;28;19917;-39
2022/10/10 02:29:08;;;;;;;;;;;;;;;8.67;98.73;101311.47;5016664;28;20811;-39
2022/10/10 02:31:36;;;;;;;;;;;;;;;8.66;97.99;101302.66;5017355;28;19921;-41
2022/10/10 02:34:19;;;;;;;;;;;;;;;8.66;99.56;101304.50;5017372;28;19924;-40
2022/10/10 02:36:49;;;;;;;;;;;;;;;8.64;99.71;101303.75;5015218;28;19963;-39
2022/10/10 02:39:15;;;;;;;;;;;;;;;8.59;100.00;101297.03;5016668;28;19940;-38
2022/10/10 02:41:41;;;;;;;;;;;;;;;8.56;100.00;101299.13;5000926;28;19914;-40
2022/10/10 02:44:06;;;;;;;;;;;;;;;8.48;100.00;101291.81;5000312;28;19920;-39
2022/10/10 02:46:32;;;;;;;;;;;;;;;8.47;100.00;101295.47;4997589;28;19913;-38
2022/10/10 02:48:57;;;;;;;;;;;;;;;8.46;100.00;101288.44;5007295;28;19922;-39
2022/10/10 02:51:22;;;;;;;;;;;;;;;8.47;100.00;101281.31;5001572;28;20217;-40
2022/10/10 02:53:47;;;;;;;;;;;;;;;8.46;98.15;101285.78;5010238;28;20403;-39
2022/10/10 02:56:12;;;;;;;;;;;;;;;8.45;97.74;101281.44;5003536;28;19925;-39
2022/10/10 02:58:38;;;;;;;;;;;;;;;8.46;99.78;101276.97;5000334;28;19914;-39
2022/10/10 03:01:03;;;;;;;;;;;;;;;8.45;97.73;101277.94;5019995;28;19917;-38
2022/10/10 03:03:28;;;;;;;;;;;;;;;8.43;99.26;101264.75;5036024;28;20287;-39
2022/10/10 03:05:53;;;;;;;;;;;;;;;8.42;98.76;101273.72;5021124;28;19944;-40
2022/10/10 03:08:19;;;;;;;;;;;;;;;8.43;99.85;101277.25;5018656;28;19925;-38
2022/10/10 03:10:54;;;;;;;;;;;;;;;8.40;99.89;101272.97;5021326;28;19964;-38
2022/10/10 03:13:20;;;;;;;;;;;;;;;8.38;100.00;101269.63;5018903;28;19971;-39
2022/10/10 03:15:45;;;;;;;;;;;;;;;8.37;100.00;101271.47;5019491;28;19920;-38
2022/10/10 03:18:10;;;;;;;;;;;;;;;8.37;98.97;101265.31;5013572;28;19940;-38
2022/10/10 03:20:35;;;;;;;;;;;;;;;8.37;98.99;101268.78;5020861;28;20007;-39
2022/10/10 03:23:01;;;;;;;;;;;;;;;8.36;99.42;101266.25;5019943;28;19917;-39
2022/10/10 03:25:26;;;;;;;;;;;;;;;8.33;100.00;101261.22;5020501;28;19953;-39
2022/10/10 03:27:51;;;;;;;;;;;;;;;8.34;100.00;101265.56;5019399;28;19925;-39
2022/10/10 03:30:16;;;;;;;;;;;;;;;8.28;100.00;101266.97;5020162;28;20390;-38
2022/10/10 03:32:41;;;;;;;;;;;;;;;8.26;100.00;101273.38;5020801;28;20008;-41
2022/10/10 03:35:07;;;;;;;;;;;;;;;8.25;100.00;101272.53;5018347;28;19913;-38
2022/10/10 03:37:32;;;;;;;;;;;;;;;8.22;100.00;101275.47;5019541;28;20542;-39
2022/10/10 03:39:57;;;;;;;;;;;;;;;8.22;100.00;101272.81;5016859;28;19930;-39
2022/10/10 03:42:22;;;;;;;;;;;;;;;8.18;100.00;101274.91;5019558;28;19960;-41
2022/10/10 03:44:47;;;;;;;;;;;;;;;8.19;100.00;101270.41;5019803;28;20339;-39
2022/10/10 03:47:12;;;;;;;;;;;;;;;8.16;100.00;101271.53;5019963;28;19988;-40
2022/10/10 03:49:38;;;;;;;;;;;;;;;8.17;100.00;101273.22;5020170;28;19933;-38
2022/10/10 03:52:03;;;;;;;;;;;;;;;8.14;100.00;101270.81;5019613;28;20519;-39
2022/10/10 03:54:28;;;;;;;;;;;;;;;8.10;100.00;101271.25;5019722;28;19967;-39
2022/10/10 03:56:53;;;;;;;;;;;;;;;8.14;100.00;101275.31;5033889;28;19933;-39
2022/10/10 03:59:18;;;;;;;;;;;;;;;8.14;100.00;101270.81;5012904;28;20277;-39
2022/10/10 04:01:44;;;;;;;;;;;;;;;8.14;100.00;101273.47;5019926;28;19910;-39
2022/10/10 04:04:09;;;;;;;;;;;;;;;8.12;99.98;101270.13;5019682;28;19917;-38
2022/10/10 04:06:34;;;;;;;;;;;;;;;8.10;100.00;101272.06;5018887;28;19917;-38
2022/10/10 04:08:59;;;;;;;;;;;;;;;8.09;100.00;101267.72;5019721;28;19917;-39
2022/10/10 04:11:24;;;;;;;;;;;;;;;8.07;100.00;101264.34;5018166;28;20450;-39
2022/10/10 04:13:50;;;;;;;;;;;;;;;8.06;100.00;101264.47;5017018;28;19913;-39
2022/10/10 04:16:15;;;;;;;;;;;;;;;8.05;100.00;101263.66;5018742;28;19921;-39
2022/10/10 04:18:40;;;;;;;;;;;;;;;8.05;100.00;101262.81;5019563;28;20445;-39
2022/10/10 04:21:05;;;;;;;;;;;;;;;8.01;100.00;101265.75;5018997;28;19913;-39
2022/10/10 04:23:30;;;;;;;;;;;;;;;8.00;100.00;101271.19;5019206;28;20438;-39
2022/10/10 04:25:56;;;;;;;;;;;;;;;7.97;100.00;101258.16;5019854;28;20655;-40
2022/10/10 04:28:21;;;;;;;;;;;;;;;7.93;100.00;101260.25;5017881;28;19913;-39
2022/10/10 04:30:46;;;;;;;;;;;;;;;7.93;100.00;101262.06;5019397;28;20351;-39
2022/10/10 04:33:11;;;;;;;;;;;;;;;7.92;100.00;101269.19;5019084;28;20283;-39
2022/10/10 04:35:37;;;;;;;;;;;;;;;7.92;100.00;101266.53;5018939;28;19996;-39
2022/10/10 04:38:03;;;;;;;;;;;;;;;7.94;100.00;101271.72;5017803;28;20391;-39
2022/10/10 04:40:28;;;;;;;;;;;;;;;7.93;100.00;101267.38;5019176;28;19917;-39
2022/10/10 04:42:54;;;;;;;;;;;;;;;7.92;100.00;101263.88;5000217;28;19921;-39
2022/10/10 04:45:19;;;;;;;;;;;;;;;7.89;100.00;101272.13;5012216;28;19921;-38
2022/10/10 04:47:44;;;;;;;;;;;;;;;7.87;100.00;101262.59;5007453;28;19928;-38
2022/10/10 04:50:10;;;;;;;;;;;;;;;7.86;100.00;101259.09;5011067;28;19932;-39
2022/10/10 04:52:35;;;;;;;;;;;;;;;7.84;100.00;101255.72;5011796;28;20366;-40
2022/10/10 04:55:00;;;;;;;;;;;;;;;7.84;100.00;101267.22;5004709;28;20396;-38
2022/10/10 04:57:25;;;;;;;;;;;;;;;7.82;100.00;101262.97;5003739;28;19921;-38
2022/10/10 04:59:51;;;;;;;;;;;;;;;7.80;100.00;101263.13;5003959;28;20308;-39
2022/10/10 05:02:16;;;;;;;;;;;;;;;7.77;100.00;101254.56;5008694;28;20146;-39
2022/10/10 05:04:41;;;;;;;;;;;;;;;7.75;100.00;101260.00;5015258;28;19977;-38
2022/10/10 05:07:07;;;;;;;;;;;;;;;7.74;100.00;101258.34;5004450;28;19921;-38
2022/10/10 05:09:32;;;;;;;;;;;;;;;7.72;100.00;101256.78;5005021;28;19917;-39
2022/10/10 05:11:58;;;;;;;;;;;;;;;7.70;100.00;101251.59;4998691;28;19913;-39
2022/10/10 05:14:23;;;;;;;;;;;;;;;7.68;100.00;101250.88;5004036;28;19978;-39
2022/10/10 05:16:48;;;;;;;;;;;;;;;7.66;100.00;101250.19;4998838;28;20384;-38
2022/10/10 05:19:13;;;;;;;;;;;;;;;7.66;100.00;101248.34;4999557;28;19917;-39
2022/10/10 05:21:39;;;;;;;;;;;;;;;7.66;100.00;101250.19;4998665;28;19944;-38
2022/10/10 05:24:04;;;;;;;;;;;;;;;7.65;100.00;101253.81;5002772;28;20380;-39
2022/10/10 05:26:29;;;;;;;;;;;;;;;7.64;100.00;101254.78;5004359;28;19979;-39
2022/10/10 05:28:55;;;;;;;;;;;;;;;7.65;100.00;101253.81;5010158;28;19951;-39
2022/10/10 05:31:20;;;;;;;;;;;;;;;7.63;100.00;101253.94;5018204;28;20075;-39
2022/10/10 05:33:45;;;;;;;;;;;;;;;7.63;100.00;101250.44;5000293;28;20004;-39
2022/10/10 05:36:11;;;;;;;;;;;;;;;7.62;100.00;101257.59;5011424;28;19940;-39
2022/10/10 05:38:37;;;;;;;;;;;;;;;7.62;100.00;101259.38;4998121;28;19920;-38
2022/10/10 05:41:03;;;;;;;;;;;;;;;7.62;100.00;101259.38;4998441;28;19909;-39
2022/10/10 05:43:28;;;;;;;;;;;;;;;7.61;100.00;101258.53;5004415;28;20869;-39
2022/10/10 05:45:53;;;;;;;;;;;;;;;7.60;100.00;101258.69;5008947;28;20332;-38
2022/10/10 05:48:18;;;;;;;;;;;;;;;7.59;100.00;101255.19;4998413;28;19914;-38
2022/10/10 05:50:45;;;;;;;;;;;;;;;7.57;100.00;101258.94;4997670;28;20296;-38
2022/10/10 05:53:11;;;;;;;;;;;;;;;7.56;100.00;101267.91;5009407;28;20235;-38
2022/10/10 05:55:36;;;;;;;;;;;;;;;7.56;100.00;101263.41;5011518;28;20524;-39
2022/10/10 05:58:01;;;;;;;;;;;;;;;7.55;100.00;101260.88;4997913;28;19918;-39
2022/10/10 06:00:27;;;;;;;;;;;;;;;7.54;100.00;101261.88;5008135;28;20036;-39
2022/10/10 06:02:52;;;;;;;;;;;;;;;7.54;100.00;101260.06;5015532;28;20264;-39
2022/10/10 06:05:17;;;;;;;;;;;;;;;7.53;100.00;101266.31;5007376;28;20283;-39
2022/10/10 06:07:43;;;;;;;;;;;;;;;7.52;100.00;101263.78;5004503;28;20374;-39
2022/10/10 06:10:08;;;;;;;;;;;;;;;7.51;100.00;101264.78;4999760;28;19932;-39
2022/10/10 06:12:33;;;;;;;;;;;;;;;7.51;100.00;101262.13;5003206;28;19941;-38
2022/10/10 06:14:59;;;;;;;;;;;;;;;7.55;100.00;101261.75;5012279;28;19936;-39
2022/10/10 06:17:24;;;;;;;;;;;;;;;7.57;100.00;101261.59;5015911;28;19932;-38
2022/10/10 06:19:49;;;;;;;;;;;;;;;7.60;100.00;101258.69;5002728;28;19918;-39
2022/10/10 06:22:15;;;;;;;;;;;;;;;7.64;100.00;101265.44;5013558;28;19924;-38
2022/10/10 06:24:40;;;;;;;;;;;;;;;7.69;100.00;101265.00;5009308;28;19913;-39
2022/10/10 06:27:05;;;;;;;;;;;;;;;7.73;100.00;101269.94;5014053;28;19952;-38
2022/10/10 06:29:31;;;;;;;;;;;;;;;7.79;100.00;101273.88;5004480;28;19960;-39
2022/10/10 06:31:56;;;;;;;;;;;;;;;7.83;100.00;101276.16;5006184;28;20007;-40
2022/10/10 06:34:21;;;;;;;;;;;;;;;7.91;100.00;101271.97;5001848;28;19940;-39
2022/10/10 06:36:48;;;;;;;;;;;;;;;7.95;100.00;101274.25;4996058;28;20241;-38
2022/10/10 06:39:13;;;;;;;;;;;;;;;8.01;100.00;101279.03;5012165;28;19917;-39
2022/10/10 06:41:38;;;;;;;;;;;;;;;8.07;100.00;101282.16;5002795;28;19921;-38
2022/10/10 06:44:04;;;;;;;;;;;;;;;8.11;100.00;101283.53;5009158;28;19917;-38
2022/10/10 06:46:29;;;;;;;;;;;;;;;8.16;100.00;101281.31;5003909;28;20374;-39
2022/10/10 06:48:54;;;;;;;;;;;;;;;8.20;100.00;101283.59;5004394;28;20145;-39
2022/10/10 06:51:19;;;;;;;;;;;;;;;8.25;100.00;101283.19;4996879;28;19913;-39
2022/10/10 06:53:45;;;;;;;;;;;;;;;8.32;100.00;101288.81;5004207;28;19913;-39
2022/10/10 06:56:16;;;;;;;;;;;;;;;8.35;100.00;101286.72;5002976;28;20368;-39
2022/10/10 06:58:42;;;;;;;;;;;;;;;8.43;100.00;101285.22;5014676;28;19916;-38
2022/10/10 07:01:08;;;;;;;;;;;;;;;8.50;100.00;101281.03;5012452;28;19960;-38
2022/10/10 07:03:34;;;;;;;;;;;;;;;8.59;100.00;101289.03;5017517;28;19919;-39
2022/10/10 07:05:59;;;;;;;;;;;;;;;8.70;100.00;101284.56;5016104;28;19913;-39
2022/10/10 07:08:25;;;;;;;;;;;;;;;8.82;100.00;101283.47;5015630;28;19964;-38
2022/10/10 07:10:50;;;;;;;;;;;;;;;8.94;100.00;101292.16;5007378;28;19918;-41
2022/10/10 07:13:17;;;;;;;;;;;;;;;9.08;100.00;101296.22;5004695;28;20419;-42
2022/10/10 07:15:42;;;;;;;;;;;;;;;9.23;100.00;101291.31;5003776;28;20410;-41
2022/10/10 07:18:07;;;;;;;;;;;;;;;9.36;100.00;101293.72;5008136;28;20060;-40
2022/10/10 07:20:33;;;;;;;;;;;;;;;9.51;100.00;101295.78;5001743;28;19918;-40
2022/10/10 07:22:58;;;;;;;;;;;;;;;9.65;100.00;101297.16;4997472;28;19975;-42
2022/10/10 07:25:23;;;;;;;;;;;;;;;9.81;100.00;101304.56;5000589;28;20586;-41
2022/10/10 07:27:49;;;;;;;;;;;;;;;9.93;100.00;101291.03;4995176;28;19929;-42
2022/10/10 07:30:14;;;;;;;;;;;;;;;10.07;100.00;101295.91;5009229;28;20223;-41
2022/10/10 07:32:39;;;;;;;;;;;;;;;10.20;100.00;101293.75;5004375;28;19925;-39
2022/10/10 07:35:05;;;;;;;;;;;;;;;10.35;100.00;101302.16;5005609;28;19917;-40
2022/10/10 07:37:30;;;;;;;;;;;;;;;10.49;100.00;101303.47;4996102;28;19921;-41
2022/10/10 07:39:56;;;;;;;;;;;;;;;10.61;100.00;101314.78;5012598;28;19975;-40
2022/10/10 07:42:21;;;;;;;;;;;;;;;10.77;100.00;101317.63;5005938;28;19987;-42
2022/10/10 07:44:46;;;;;;;;;;;;;;;10.93;100.00;101318.78;5008138;28;20027;-42
2022/10/10 07:47:11;;;;;;;;;;;;;;;11.01;100.00;101322.41;5003710;28;20388;-42
2022/10/10 07:49:37;;;;;;;;;;;;;;;11.06;100.00;101335.28;5000961;28;20254;-41
2022/10/10 07:52:02;;;;;;;;;;;;;;;11.08;100.00;101338.63;4999940;28;19928;-42
2022/10/10 07:54:30;;;;;;;;;;;;;;;11.15;100.00;101342.41;5000868;28;19918;-44
2022/10/10 07:56:56;;;;;;;;;;;;;;;11.24;100.00;101343.31;5000588;28;19922;-41
2022/10/10 07:59:22;;;;;;;;;;;;;;;11.29;100.00;101335.69;5008511;28;19943;-41
2022/10/10 08:01:47;;;;;;;;;;;;;;;11.33;100.00;101336.22;5019779;28;19963;-40
2022/10/10 08:04:12;;;;;;;;;;;;;;;11.34;100.00;101344.06;5018912;28;20165;-40
2022/10/10 08:06:37;;;;;;;;;;;;;;;11.34;100.00;101346.75;5016709;28;19917;-41
2022/10/10 08:09:02;;;;;;;;;;;;;;;11.39;100.00;101351.66;5012341;28;19925;-42
2022/10/10 08:11:28;;;;;;;;;;;;;;;11.41;100.00;101355.00;5016175;28;19921;-43
2022/10/10 08:13:53;;;;;;;;;;;;;;;11.40;100.00;101342.63;5015534;28;20351;-42
2022/10/10 08:16:18;;;;;;;;;;;;;;;11.44;100.00;101354.69;5011692;28;20038;-41
2022/10/10 08:18:43;;;;;;;;;;;;;;;11.48;100.00;101348.03;5013658;28;19921;-42
2022/10/10 08:21:13;;;;;;;;;;;;;;;11.51;100.00;101339.72;5004469;28;19925;-40
2022/10/10 08:23:39;;;;;;;;;;;;;;;11.57;100.00;101333.75;5009539;28;20019;-39
2022/10/10 08:26:06;;;;;;;;;;;;;;;11.61;100.00;101346.78;5014987;28;19933;-42
2022/10/10 08:28:31;;;;;;;;;;;;;;;11.63;100.00;101340.28;5008561;28;20190;-41
2022/10/10 08:30:57;;;;;;;;;;;;;;;11.66;100.00;101339.13;5011895;28;19917;-40
2022/10/10 08:33:25;;;;;;;;;;;;;;;11.70;100.00;101340.50;5010166;28;20353;-42
2022/10/10 08:35:50;;;;;;;;;;;;;;;11.80;100.00;101340.41;5007974;28;20340;-41
2022/10/10 08:38:15;;;;;;;;;;;;;;;11.91;100.00;101346.38;5007708;28;19917;-40
2022/10/10 08:40:45;;;;;;;;;;;;;;;12.04;100.00;101345.13;5004551;28;19925;-42
2022/10/10 08:43:16;;;;;;;;;;;;;;;12.21;100.00;101351.41;5006426;28;19921;-42
2022/10/10 08:45:43;;;;;;;;;;;;;;;12.36;100.00;101343.63;5004600;28;20415;-42
2022/10/10 08:48:13;;;;;;;;;;;;;;;12.46;100.00;101360.41;5008265;28;19928;-41
2022/10/10 08:50:43;;;;;;;;;;;;;;;12.53;100.00;101350.72;5005737;28;19925;-46
2022/10/10 08:53:31;;;;;;;;;;;;;;;12.65;100.00;101352.09;5012751;28;19921;-44
2022/10/10 08:55:56;;;;;;;;;;;;;;;12.85;100.00;101347.28;5010554;28;19921;-40
2022/10/10 08:58:25;;;;;;;;;;;;;;;13.05;100.00;101345.16;5011768;28;20166;-41
2022/10/10 09:00:58;;;;;;;;;;;;;;;13.17;100.00;101344.81;5013445;28;19970;-42
2022/10/10 09:03:29;;;;;;;;;;;;;;;13.30;100.00;101358.59;5017041;28;19917;-40
2022/10/10 09:06:03;;;;;;;;;;;;;;;13.50;100.00;101363.69;5013956;28;20398;-41
2022/10/10 09:08:44;;;;;;;;;;;;;;;13.62;100.00;101355.09;5015167;28;19928;-42
2022/10/10 09:11:24;;;;;;;;;;;;;;;13.75;100.00;101364.50;5015100;28;19932;-43
2022/10/10 09:13:58;;;;;;;;;;;;;;;13.88;100.00;101362.13;5008028;28;19921;-41
2022/10/10 09:16:23;;;;;;;;;;;;;;;13.99;100.00;101361.78;5014465;28;20599;-40
2022/10/10 09:19:09;;;;;;;;;;;;;;;14.14;100.00;101367.28;5013166;28;20020;-43
2022/10/10 09:21:37;;;;;;;;;;;;;;;14.35;100.00;101364.03;5003200;28;20235;-40
2022/10/10 09:24:16;;;;;;;;;;;;;;;14.54;100.00;101365.47;5012347;28;20373;-41
2022/10/10 09:26:57;;;;;;;;;;;;;;;14.68;100.00;101369.31;5011640;28;20071;-41
2022/10/10 09:29:22;;;;;;;;;;;;;;;14.80;100.00;101372.44;5003308;28;19994;-40
2022/10/10 09:31:51;;;;;;;;;;;;;;;14.81;100.00;101373.28;5009341;28;19929;-43
2022/10/10 09:34:30;;;;;;;;;;;;;;;14.92;100.00;101375.59;5005790;28;20132;-41
2022/10/10 09:36:59;;;;;;;;;;;;;;;15.10;100.00;101375.28;4999498;28;20019;-43
2022/10/10 09:39:35;;;;;;;;;;;;;;;15.25;100.00;101383.44;4994878;28;19973;-40
2022/10/10 09:42:08;;;;;;;;;;;;;;;15.35;100.00;101394.81;5011430;28;20232;-42
2022/10/10 09:44:33;;;;;;;;;;;;;;;15.39;100.00;101390.72;5004117;28;20310;-42
2022/10/10 09:46:59;;;;;;;;;;;;;;;15.41;100.00;101399.47;5006328;28;20031;-42
2022/10/10 09:49:24;;;;;;;;;;;;;;;15.41;100.00;101398.63;5009696;28;20269;-43
2022/10/10 09:51:50;;;;;;;;;;;;;;;15.44;100.00;101403.66;4997845;28;19925;-41
2022/10/10 09:54:16;;;;;;;;;;;;;;;15.45;100.00;101405.34;5004472;28;19964;-41
2022/10/10 09:56:48;;;;;;;;;;;;;;;15.45;100.00;101400.78;5011361;28;20062;-40
2022/10/10 09:59:33;;;;;;;;;;;;;;;15.38;100.00;101407.06;5004711;28;20001;-44
2022/10/10 10:02:02;;;;;;;;;;;;;;;15.30;100.00;101402.56;5010276;28;19978;-41
2022/10/10 10:04:31;;;;;;;;;;;;;;;15.32;100.00;101405.09;5005667;28;19944;-40
2022/10/10 10:07:17;;;;;;;;;;;;;;;15.29;100.00;101412.50;5013288;28;20291;-43
2022/10/10 10:09:45;;;;;;;;;;;;;;;15.33;100.00;101402.22;5014306;28;19928;-43
2022/10/10 10:12:11;;;;;;;;;;;;;;;15.32;100.00;101399.72;5013270;28;19921;-44
2022/10/10 10:14:37;;;;;;;;;;;;;;;15.28;100.00;101402.75;5011611;28;19921;-41
2022/10/10 10:17:09;;;;;;;;;;;;;;;15.22;100.00;101405.31;5009310;28;19918;-43
2022/10/10 10:19:42;;;;;;;;;;;;;;;15.14;100.00;101414.28;5004867;28;19920;-50
2022/10/10 10:22:34;;;;;;;;;;;;;;;15.15;100.00;101417.81;5005301;28;20003;-45
2022/10/10 10:25:19;;;;;;;;;;;;;;;15.21;100.00;101411.72;5000375;28;20019;-42
2022/10/10 10:27:44;;;;;;;;;;;;;;;15.30;100.00;101416.03;5001979;28;19921;-42
2022/10/10 10:30:21;;;;;;;;;;;;;;;15.56;100.00;101406.75;5011583;28;20624;-43
2022/10/10 10:32:46;;;;;;;;;;;;;;;16.04;100.00;101419.00;5012656;28;19921;-42
2022/10/10 10:35:22;;;;;;;;;;;;;;;16.43;98.48;101422.50;5007751;28;20241;-44
2022/10/10 10:38:02;;;;;;;;;;;;;;;16.67;97.59;101421.34;5008660;28;19921;-41
2022/10/10 10:40:33;;;;;;;;;;;;;;;16.78;95.73;101412.81;5009246;28;20414;-45
2022/10/10 10:43:17;;;;;;;;;;;;;;;16.86;96.12;101421.84;4999464;28;20056;-45
2022/10/10 10:45:45;;;;;;;;;;;;;;;16.81;93.43;101429.63;5007968;28;19933;-43
2022/10/10 10:48:25;;;;;;;;;;;;;;;16.64;94.25;101442.47;5005080;28;19929;-42
2022/10/10 10:51:09;;;;;;;;;;;;;;;16.63;93.74;101444.31;5007635;28;19979;-48
2022/10/10 10:53:34;;;;;;;;;;;;;;;16.81;92.56;101448.50;4999694;28;19932;-41
2022/10/10 10:56:03;;;;;;;;;;;;;;;16.96;91.49;101439.41;5005179;28;19917;-42
2022/10/10 10:58:28;;;;;;;;;;;;;;;17.12;90.03;101445.59;5005455;28;20348;-43
2022/10/10 11:01:28;;;;;;;;;;;;;;;17.12;90.46;101454.53;5010107;28;19928;-41
2022/10/10 11:03:54;;;;;;;;;;;;;;;16.95;89.07;101458.47;4990657;28;19921;-42
2022/10/10 11:06:28;;;;;;;;;;;;;;;16.82;89.89;101452.88;5006892;28;19921;-42
2022/10/10 11:08:59;;;;;;;;;;;;;;;16.77;90.45;101456.16;5007314;28;20048;-42
2022/10/10 11:11:27;;;;;;;;;;;;;;;16.83;89.87;101460.78;5009094;28;20035;-42
2022/10/10 11:14:08;;;;;;;;;;;;;;;16.80;89.21;101458.44;5012654;28;20507;-42
2022/10/10 11:16:39;;;;;;;;;;;;;;;16.94;89.75;101462.22;5016259;28;20181;-43
2022/10/10 11:19:10;;;;;;;;;;;;;;;17.19;88.79;101476.19;5017410;28;20418;-42
2022/10/10 11:21:39;;;;;;;;;;;;;;;17.45;88.57;101472.97;5018649;28;20386;-44
2022/10/10 11:24:26;;;;;;;;;;;;;;;17.70;85.85;101470.75;5019921;28;20257;-42
2022/10/10 11:26:53;;;;;;;;;;;;;;;17.87;86.05;101473.19;5004573;28;19921;-44
2022/10/10 11:29:23;;;;;;;;;;;;;;;18.03;85.41;101466.69;5004816;28;20284;-43
2022/10/10 11:31:52;;;;;;;;;;;;;;;18.19;83.04;101465.56;5006267;28;19952;-41
2022/10/10 11:34:30;;;;;;;;;;;;;;;18.31;82.08;101460.44;5012803;28;20664;-46
2022/10/10 11:36:59;;;;;;;;;;;;;;;18.45;80.20;101460.34;5009844;28;20380;-42
2022/10/10 11:39:38;;;;;;;;;;;;;;;18.51;81.27;101453.28;5001024;28;20052;-42
2022/10/10 11:42:15;;;;;;;;;;;;;;;18.66;79.58;101453.19;5003998;28;20562;-42
2022/10/10 11:44:44;;;;;;;;;;;;;;;18.75;81.23;101445.72;5005681;28;20217;-42
2022/10/10 11:47:18;;;;;;;;;;;;;;;18.91;80.94;101436.47;5007320;28;19921;-45
2022/10/10 11:50:02;;;;;;;;;;;;;;;19.20;76.80;101443.44;5015202;28;19945;-46
2022/10/10 11:52:39;;;;;;;;;;;;;;;19.28;76.64;101447.84;5006673;28;19924;-45
2022/10/10 11:55:09;;;;;;;;;;;;;;;19.23;76.99;101453.03;5010830;28;19932;-42
2022/10/10 11:57:37;;;;;;;;;;;;;;;19.23;75.14;101458.44;5010914;28;19921;-42
2022/10/10 12:00:09;;;;;;;;;;;;;;;19.12;77.05;101463.41;5009737;28;20252;-45
2022/10/10 12:02:36;;;;;;;;;;;;;;;18.94;76.16;101463.97;5017241;28;19933;-44
2022/10/10 12:05:04;;;;;;;;;;;;;;;18.83;76.49;101472.66;5014700;28;20207;-42
2022/10/10 12:07:42;;;;;;;;;;;;;;;18.81;76.48;101469.28;5017591;28;19951;-42
2022/10/10 12:10:07;;;;;;;;;;;;;;;18.98;78.57;101465.22;5017769;28;19940;-44
2022/10/10 12:12:35;;;;;;;;;;;;;;;19.41;78.45;101468.72;5017076;28;20286;-45
2022/10/10 12:15:02;;;;;;;;;;;;;;;19.72;75.05;101476.25;5017994;28;19921;-48
2022/10/10 12:17:31;;;;;;;;;;;;;;;19.92;73.98;101481.75;5015460;28;19948;-45
2022/10/10 12:20:25;;;;;;;;;;;;;;;20.31;71.19;101488.19;5015815;28;19932;-43
2022/10/10 12:23:07;;;;;;;;;;;;;;;20.62;70.00;101486.69;5012196;28;19960;-45
2022/10/10 12:25:41;;;;;;;;;;;;;;;20.17;71.04;101483.84;5012546;28;20169;-42
2022/10/10 12:28:12;;;;;;;;;;;;;;;19.61;73.60;101482.31;5016818;28;20296;-42
2022/10/10 12:30:57;;;;;;;;;;;;;;;19.33;75.63;101481.41;5016417;28;20043;-44
2022/10/10 12:33:32;;;;;;;;;;;;;;;19.11;76.35;101479.84;5014378;28;19935;-43
2022/10/10 12:36:15;;;;;;;;;;;;;;;18.97;77.15;101482.50;5012089;28;20024;-41
2022/10/10 12:39:02;;;;;;;;;;;;;;;18.96;78.40;101488.97;5012263;28;19924;-40
2022/10/10 12:41:39;;;;;;;;;;;;;;;18.90;77.89;101489.75;5015818;28;20081;-43
2022/10/10 12:44:13;;;;;;;;;;;;;;;18.76;78.81;101485.28;5010483;28;20445;-41